sensor_id;sensor_type;location;lat;lon;timestamp;P1;durP1;ratioP1;P2;durP2;ratioP2
84275;SDS011;74432;51.212;3.254;2024-02-04T00:00:43;23.17;;;5.68;;
84275;SDS011;74432;51.212;3.254;2024-02-04T00:03:09;27.95;;;6.40;;
84275;SDS011;74432;51.212;3.254;2024-02-04T00:05:35;22.60;;;6.10;;
84275;SDS011;74432;51.212;3.254;2024-02-04T00:08:01;15.48;;;5.18;;
84275;SDS011;74432;51.212;3.254;2024-02-04T00:10:27;17.65;;;5.13;;
84275;SDS011;74432;51.212;3.254;2024-02-04T00:12:53;15.45;;;4.80;;
84275;SDS011;74432;51.212;3.254;2024-02-04T00:15:19;20.58;;;5.75;;
84275;SDS011;74432;51.212;3.254;2024-02-04T00:17:45;26.48;;;7.13;;
84275;SDS011;74432;51.212;3.254;2024-02-04T00:20:10;26.27;;;5.80;;
84275;SDS011;74432;51.212;3.254;2024-02-04T00:22:36;19.23;;;5.10;;
84275;SDS011;74432;51.212;3.254;2024-02-04T00:25:02;24.98;;;4.93;;
84275;SDS011;74432;51.212;3.254;2024-02-04T00:27:32;17.65;;;4.30;;
84275;SDS011;74432;51.212;3.254;2024-02-04T00:29:57;24.42;;;4.90;;
84275;SDS011;74432;51.212;3.254;2024-02-04T00:32:23;31.85;;;5.15;;
84275;SDS011;74432;51.212;3.254;2024-02-04T00:34:50;21.95;;;4.88;;
84275;SDS011;74432;51.212;3.254;2024-02-04T00:37:16;21.38;;;5.07;;
84275;SDS011;74432;51.212;3.254;2024-02-04T00:39:42;22.88;;;5.60;;
84275;SDS011;74432;51.212;3.254;2024-02-04T00:42:07;14.82;;;4.75;;
84275;SDS011;74432;51.212;3.254;2024-02-04T00:44:33;19.75;;;4.82;;
84275;SDS011;74432;51.212;3.254;2024-02-04T00:46:58;23.52;;;4.80;;
84275;SDS011;74432;51.212;3.254;2024-02-04T00:49:24;12.90;;;3.95;;
84275;SDS011;74432;51.212;3.254;2024-02-04T00:51:51;19.48;;;4.50;;
84275;SDS011;74432;51.212;3.254;2024-02-04T00:54:17;17.10;;;4.07;;
84275;SDS011;74432;51.212;3.254;2024-02-04T00:56:43;12.43;;;3.88;;
84275;SDS011;74432;51.212;3.254;2024-02-04T00:59:08;16.60;;;4.13;;
84275;SDS011;74432;51.212;3.254;2024-02-04T01:01:34;15.25;;;4.03;;
84275;SDS011;74432;51.212;3.254;2024-02-04T01:04:00;14.23;;;3.45;;
84275;SDS011;74432;51.212;3.254;2024-02-04T01:06:25;20.95;;;4.22;;
84275;SDS011;74432;51.212;3.254;2024-02-04T01:08:52;15.90;;;4.13;;
84275;SDS011;74432;51.212;3.254;2024-02-04T01:11:18;18.42;;;4.97;;
84275;SDS011;74432;51.212;3.254;2024-02-04T01:13:44;13.85;;;4.05;;
84275;SDS011;74432;51.212;3.254;2024-02-04T01:16:10;18.83;;;3.88;;
84275;SDS011;74432;51.212;3.254;2024-02-04T01:18:35;21.45;;;4.25;;
84275;SDS011;74432;51.212;3.254;2024-02-04T01:21:01;22.08;;;4.28;;
84275;SDS011;74432;51.212;3.254;2024-02-04T01:23:26;17.90;;;4.22;;
84275;SDS011;74432;51.212;3.254;2024-02-04T01:25:52;14.15;;;3.72;;
84275;SDS011;74432;51.212;3.254;2024-02-04T01:28:18;20.08;;;4.50;;
84275;SDS011;74432;51.212;3.254;2024-02-04T01:30:43;13.30;;;3.28;;
84275;SDS011;74432;51.212;3.254;2024-02-04T01:33:09;15.38;;;4.97;;
84275;SDS011;74432;51.212;3.254;2024-02-04T01:35:35;12.85;;;3.35;;
84275;SDS011;74432;51.212;3.254;2024-02-04T01:38:00;12.20;;;3.75;;
84275;SDS011;74432;51.212;3.254;2024-02-04T01:40:26;15.15;;;3.90;;
84275;SDS011;74432;51.212;3.254;2024-02-04T01:42:52;15.20;;;4.13;;
84275;SDS011;74432;51.212;3.254;2024-02-04T01:45:17;19.63;;;4.80;;
84275;SDS011;74432;51.212;3.254;2024-02-04T01:47:43;17.00;;;3.97;;
84275;SDS011;74432;51.212;3.254;2024-02-04T01:50:09;16.58;;;3.65;;
84275;SDS011;74432;51.212;3.254;2024-02-04T01:52:36;12.13;;;3.80;;
84275;SDS011;74432;51.212;3.254;2024-02-04T01:55:04;11.48;;;3.83;;
84275;SDS011;74432;51.212;3.254;2024-02-04T01:57:31;17.90;;;3.90;;
84275;SDS011;74432;51.212;3.254;2024-02-04T01:59:59;13.27;;;3.55;;
84275;SDS011;74432;51.212;3.254;2024-02-04T02:02:25;13.38;;;3.60;;
84275;SDS011;74432;51.212;3.254;2024-02-04T02:04:51;18.85;;;3.97;;
84275;SDS011;74432;51.212;3.254;2024-02-04T02:07:17;12.90;;;4.40;;
84275;SDS011;74432;51.212;3.254;2024-02-04T02:09:46;15.65;;;3.53;;
84275;SDS011;74432;51.212;3.254;2024-02-04T02:12:13;12.93;;;3.80;;
84275;SDS011;74432;51.212;3.254;2024-02-04T02:14:44;10.63;;;3.88;;
84275;SDS011;74432;51.212;3.254;2024-02-04T02:17:12;12.30;;;4.32;;
84275;SDS011;74432;51.212;3.254;2024-02-04T02:22:48;17.80;;;3.85;;
84275;SDS011;74432;51.212;3.254;2024-02-04T02:25:25;16.55;;;4.82;;
84275;SDS011;74432;51.212;3.254;2024-02-04T02:27:53;23.58;;;4.10;;
84275;SDS011;74432;51.212;3.254;2024-02-04T02:30:18;10.50;;;3.88;;
84275;SDS011;74432;51.212;3.254;2024-02-04T02:32:44;9.63;;;4.05;;
84275;SDS011;74432;51.212;3.254;2024-02-04T02:35:17;14.65;;;4.20;;
84275;SDS011;74432;51.212;3.254;2024-02-04T02:40:34;16.83;;;4.45;;
84275;SDS011;74432;51.212;3.254;2024-02-04T02:43:03;11.70;;;3.80;;
84275;SDS011;74432;51.212;3.254;2024-02-04T02:45:29;20.67;;;4.63;;
84275;SDS011;74432;51.212;3.254;2024-02-04T02:47:56;11.45;;;4.28;;
84275;SDS011;74432;51.212;3.254;2024-02-04T02:50:23;19.77;;;4.65;;
84275;SDS011;74432;51.212;3.254;2024-02-04T02:52:49;13.50;;;4.72;;
84275;SDS011;74432;51.212;3.254;2024-02-04T02:55:14;15.73;;;4.20;;
84275;SDS011;74432;51.212;3.254;2024-02-04T02:57:41;21.25;;;4.57;;
84275;SDS011;74432;51.212;3.254;2024-02-04T03:00:07;16.88;;;3.97;;
84275;SDS011;74432;51.212;3.254;2024-02-04T03:02:34;14.00;;;4.88;;
84275;SDS011;74432;51.212;3.254;2024-02-04T03:04:59;9.00;;;4.03;;
84275;SDS011;74432;51.212;3.254;2024-02-04T03:07:25;17.35;;;3.67;;
84275;SDS011;74432;51.212;3.254;2024-02-04T03:09:52;13.68;;;3.60;;
84275;SDS011;74432;51.212;3.254;2024-02-04T03:12:18;14.73;;;3.88;;
84275;SDS011;74432;51.212;3.254;2024-02-04T03:14:43;14.77;;;3.65;;
84275;SDS011;74432;51.212;3.254;2024-02-04T03:17:09;12.32;;;3.50;;
84275;SDS011;74432;51.212;3.254;2024-02-04T03:19:36;17.60;;;4.00;;
84275;SDS011;74432;51.212;3.254;2024-02-04T03:22:02;14.52;;;3.42;;
84275;SDS011;74432;51.212;3.254;2024-02-04T03:24:28;12.20;;;3.92;;
84275;SDS011;74432;51.212;3.254;2024-02-04T03:26:53;12.43;;;3.10;;
84275;SDS011;74432;51.212;3.254;2024-02-04T03:29:19;18.10;;;4.38;;
84275;SDS011;74432;51.212;3.254;2024-02-04T03:31:45;15.05;;;3.30;;
84275;SDS011;74432;51.212;3.254;2024-02-04T03:34:11;18.75;;;3.75;;
84275;SDS011;74432;51.212;3.254;2024-02-04T03:36:37;11.02;;;3.63;;
84275;SDS011;74432;51.212;3.254;2024-02-04T03:39:06;11.02;;;3.83;;
84275;SDS011;74432;51.212;3.254;2024-02-04T03:41:31;13.82;;;4.30;;
84275;SDS011;74432;51.212;3.254;2024-02-04T03:43:57;19.35;;;5.20;;
84275;SDS011;74432;51.212;3.254;2024-02-04T03:46:23;16.50;;;4.88;;
84275;SDS011;74432;51.212;3.254;2024-02-04T03:48:48;14.85;;;5.05;;
84275;SDS011;74432;51.212;3.254;2024-02-04T03:51:17;13.52;;;4.78;;
84275;SDS011;74432;51.212;3.254;2024-02-04T03:53:43;14.18;;;5.10;;
84275;SDS011;74432;51.212;3.254;2024-02-04T03:56:10;14.02;;;4.60;;
84275;SDS011;74432;51.212;3.254;2024-02-04T03:58:36;12.23;;;5.05;;
84275;SDS011;74432;51.212;3.254;2024-02-04T04:01:01;13.48;;;4.65;;
84275;SDS011;74432;51.212;3.254;2024-02-04T04:03:27;12.60;;;4.30;;
84275;SDS011;74432;51.212;3.254;2024-02-04T04:05:53;7.78;;;3.25;;
84275;SDS011;74432;51.212;3.254;2024-02-04T04:08:19;8.80;;;3.72;;
84275;SDS011;74432;51.212;3.254;2024-02-04T04:10:45;7.63;;;3.28;;
84275;SDS011;74432;51.212;3.254;2024-02-04T04:13:11;9.40;;;3.40;;
84275;SDS011;74432;51.212;3.254;2024-02-04T04:15:37;9.35;;;3.17;;
84275;SDS011;74432;51.212;3.254;2024-02-04T04:18:03;12.50;;;4.07;;
84275;SDS011;74432;51.212;3.254;2024-02-04T04:20:29;10.93;;;3.72;;
84275;SDS011;74432;51.212;3.254;2024-02-04T04:22:55;17.67;;;4.68;;
84275;SDS011;74432;51.212;3.254;2024-02-04T04:25:20;12.30;;;4.78;;
84275;SDS011;74432;51.212;3.254;2024-02-04T04:27:46;13.50;;;5.50;;
84275;SDS011;74432;51.212;3.254;2024-02-04T04:30:12;17.70;;;6.38;;
84275;SDS011;74432;51.212;3.254;2024-02-04T04:32:37;18.30;;;5.65;;
84275;SDS011;74432;51.212;3.254;2024-02-04T04:35:03;15.60;;;5.05;;
84275;SDS011;74432;51.212;3.254;2024-02-04T04:37:29;15.27;;;5.20;;
84275;SDS011;74432;51.212;3.254;2024-02-04T04:39:55;13.20;;;5.20;;
84275;SDS011;74432;51.212;3.254;2024-02-04T04:42:20;14.82;;;4.80;;
84275;SDS011;74432;51.212;3.254;2024-02-04T04:44:46;12.65;;;4.38;;
84275;SDS011;74432;51.212;3.254;2024-02-04T04:47:12;12.68;;;4.60;;
84275;SDS011;74432;51.212;3.254;2024-02-04T04:49:37;10.80;;;4.80;;
84275;SDS011;74432;51.212;3.254;2024-02-04T04:52:03;10.35;;;4.68;;
84275;SDS011;74432;51.212;3.254;2024-02-04T04:54:29;10.23;;;4.28;;
84275;SDS011;74432;51.212;3.254;2024-02-04T04:56:55;10.43;;;4.40;;
84275;SDS011;74432;51.212;3.254;2024-02-04T04:59:20;17.75;;;4.93;;
84275;SDS011;74432;51.212;3.254;2024-02-04T05:01:46;14.45;;;5.63;;
84275;SDS011;74432;51.212;3.254;2024-02-04T05:04:13;8.13;;;5.05;;
84275;SDS011;74432;51.212;3.254;2024-02-04T05:06:39;18.73;;;5.90;;
84275;SDS011;74432;51.212;3.254;2024-02-04T05:09:05;11.98;;;5.38;;
84275;SDS011;74432;51.212;3.254;2024-02-04T05:11:31;10.57;;;4.70;;
84275;SDS011;74432;51.212;3.254;2024-02-04T05:13:56;11.63;;;4.20;;
84275;SDS011;74432;51.212;3.254;2024-02-04T05:16:22;8.32;;;3.67;;
84275;SDS011;74432;51.212;3.254;2024-02-04T05:18:48;8.27;;;3.35;;
84275;SDS011;74432;51.212;3.254;2024-02-04T05:21:13;9.05;;;2.70;;
84275;SDS011;74432;51.212;3.254;2024-02-04T05:23:39;5.43;;;3.00;;
84275;SDS011;74432;51.212;3.254;2024-02-04T05:26:05;10.52;;;3.88;;
84275;SDS011;74432;51.212;3.254;2024-02-04T05:28:31;6.93;;;2.53;;
84275;SDS011;74432;51.212;3.254;2024-02-04T05:30:57;10.18;;;3.38;;
84275;SDS011;74432;51.212;3.254;2024-02-04T05:33:23;8.10;;;2.97;;
84275;SDS011;74432;51.212;3.254;2024-02-04T05:35:48;6.68;;;2.83;;
84275;SDS011;74432;51.212;3.254;2024-02-04T05:38:15;12.10;;;2.92;;
84275;SDS011;74432;51.212;3.254;2024-02-04T05:40:41;10.60;;;3.03;;
84275;SDS011;74432;51.212;3.254;2024-02-04T05:43:07;11.95;;;3.10;;
84275;SDS011;74432;51.212;3.254;2024-02-04T05:45:35;16.95;;;4.55;;
84275;SDS011;74432;51.212;3.254;2024-02-04T05:48:06;10.05;;;2.67;;
84275;SDS011;74432;51.212;3.254;2024-02-04T05:50:32;6.40;;;2.53;;
84275;SDS011;74432;51.212;3.254;2024-02-04T05:52:58;7.90;;;2.78;;
84275;SDS011;74432;51.212;3.254;2024-02-04T05:55:24;8.40;;;2.53;;
84275;SDS011;74432;51.212;3.254;2024-02-04T05:57:50;12.10;;;2.92;;
84275;SDS011;74432;51.212;3.254;2024-02-04T06:00:19;4.05;;;2.45;;
84275;SDS011;74432;51.212;3.254;2024-02-04T06:02:44;11.55;;;3.30;;
84275;SDS011;74432;51.212;3.254;2024-02-04T06:05:11;9.48;;;2.85;;
84275;SDS011;74432;51.212;3.254;2024-02-04T06:07:37;9.70;;;3.25;;
84275;SDS011;74432;51.212;3.254;2024-02-04T06:10:02;10.40;;;3.53;;
84275;SDS011;74432;51.212;3.254;2024-02-04T06:12:29;6.75;;;2.88;;
84275;SDS011;74432;51.212;3.254;2024-02-04T06:14:55;13.27;;;3.45;;
84275;SDS011;74432;51.212;3.254;2024-02-04T06:17:20;9.30;;;3.60;;
84275;SDS011;74432;51.212;3.254;2024-02-04T06:19:46;8.88;;;4.43;;
84275;SDS011;74432;51.212;3.254;2024-02-04T06:22:12;10.55;;;4.05;;
84275;SDS011;74432;51.212;3.254;2024-02-04T06:24:39;10.93;;;3.67;;
84275;SDS011;74432;51.212;3.254;2024-02-04T06:27:06;9.52;;;4.55;;
84275;SDS011;74432;51.212;3.254;2024-02-04T06:29:32;12.30;;;4.18;;
84275;SDS011;74432;51.212;3.254;2024-02-04T06:31:58;9.32;;;4.30;;
84275;SDS011;74432;51.212;3.254;2024-02-04T06:34:24;12.52;;;4.65;;
84275;SDS011;74432;51.212;3.254;2024-02-04T06:36:50;15.55;;;4.32;;
84275;SDS011;74432;51.212;3.254;2024-02-04T06:39:18;14.07;;;4.95;;
84275;SDS011;74432;51.212;3.254;2024-02-04T06:41:44;11.07;;;4.63;;
84275;SDS011;74432;51.212;3.254;2024-02-04T06:44:10;13.90;;;5.18;;
84275;SDS011;74432;51.212;3.254;2024-02-04T06:46:36;14.05;;;4.20;;
84275;SDS011;74432;51.212;3.254;2024-02-04T06:49:02;9.38;;;4.70;;
84275;SDS011;74432;51.212;3.254;2024-02-04T06:51:28;12.80;;;4.70;;
84275;SDS011;74432;51.212;3.254;2024-02-04T06:53:53;7.38;;;4.15;;
84275;SDS011;74432;51.212;3.254;2024-02-04T06:56:19;11.23;;;4.07;;
84275;SDS011;74432;51.212;3.254;2024-02-04T06:58:45;17.80;;;4.88;;
84275;SDS011;74432;51.212;3.254;2024-02-04T07:01:11;11.93;;;4.10;;
84275;SDS011;74432;51.212;3.254;2024-02-04T07:03:37;10.38;;;4.25;;
84275;SDS011;74432;51.212;3.254;2024-02-04T07:06:03;9.85;;;4.10;;
84275;SDS011;74432;51.212;3.254;2024-02-04T07:08:29;11.25;;;3.53;;
84275;SDS011;74432;51.212;3.254;2024-02-04T07:10:55;8.68;;;3.13;;
84275;SDS011;74432;51.212;3.254;2024-02-04T07:13:21;9.25;;;3.20;;
84275;SDS011;74432;51.212;3.254;2024-02-04T07:15:47;6.63;;;2.78;;
84275;SDS011;74432;51.212;3.254;2024-02-04T07:18:12;10.57;;;2.63;;
84275;SDS011;74432;51.212;3.254;2024-02-04T07:20:38;14.15;;;4.03;;
84275;SDS011;74432;51.212;3.254;2024-02-04T07:23:04;9.80;;;3.10;;
84275;SDS011;74432;51.212;3.254;2024-02-04T07:25:33;12.77;;;3.70;;
84275;SDS011;74432;51.212;3.254;2024-02-04T07:28:00;14.13;;;3.78;;
84275;SDS011;74432;51.212;3.254;2024-02-04T07:30:26;8.65;;;2.70;;
84275;SDS011;74432;51.212;3.254;2024-02-04T07:32:51;14.82;;;3.30;;
84275;SDS011;74432;51.212;3.254;2024-02-04T07:35:17;14.25;;;3.10;;
84275;SDS011;74432;51.212;3.254;2024-02-04T07:37:43;12.32;;;3.67;;
84275;SDS011;74432;51.212;3.254;2024-02-04T07:40:09;14.55;;;5.85;;
84275;SDS011;74432;51.212;3.254;2024-02-04T07:42:35;13.73;;;3.88;;
84275;SDS011;74432;51.212;3.254;2024-02-04T07:45:00;8.30;;;2.85;;
84275;SDS011;74432;51.212;3.254;2024-02-04T07:47:33;10.80;;;3.30;;
84275;SDS011;74432;51.212;3.254;2024-02-04T07:49:59;13.63;;;3.30;;
84275;SDS011;74432;51.212;3.254;2024-02-04T07:52:24;9.32;;;2.83;;
84275;SDS011;74432;51.212;3.254;2024-02-04T07:54:50;10.82;;;3.60;;
84275;SDS011;74432;51.212;3.254;2024-02-04T07:57:15;7.63;;;2.58;;
84275;SDS011;74432;51.212;3.254;2024-02-04T07:59:41;9.32;;;3.20;;
84275;SDS011;74432;51.212;3.254;2024-02-04T08:02:07;9.88;;;3.28;;
84275;SDS011;74432;51.212;3.254;2024-02-04T08:04:33;14.85;;;3.50;;
84275;SDS011;74432;51.212;3.254;2024-02-04T08:06:58;12.80;;;3.60;;
84275;SDS011;74432;51.212;3.254;2024-02-04T08:09:24;10.68;;;2.90;;
84275;SDS011;74432;51.212;3.254;2024-02-04T08:11:50;12.10;;;3.42;;
84275;SDS011;74432;51.212;3.254;2024-02-04T08:14:15;13.18;;;3.95;;
84275;SDS011;74432;51.212;3.254;2024-02-04T08:16:42;15.73;;;3.60;;
84275;SDS011;74432;51.212;3.254;2024-02-04T08:19:08;11.35;;;3.33;;
84275;SDS011;74432;51.212;3.254;2024-02-04T08:21:34;11.32;;;4.13;;
84275;SDS011;74432;51.212;3.254;2024-02-04T08:23:59;9.75;;;4.43;;
84275;SDS011;74432;51.212;3.254;2024-02-04T08:26:25;14.82;;;5.93;;
84275;SDS011;74432;51.212;3.254;2024-02-04T08:28:51;13.05;;;3.55;;
84275;SDS011;74432;51.212;3.254;2024-02-04T08:31:16;10.23;;;4.03;;
84275;SDS011;74432;51.212;3.254;2024-02-04T08:33:42;12.85;;;3.60;;
84275;SDS011;74432;51.212;3.254;2024-02-04T08:36:08;11.02;;;4.15;;
84275;SDS011;74432;51.212;3.254;2024-02-04T08:38:35;13.23;;;3.25;;
84275;SDS011;74432;51.212;3.254;2024-02-04T08:41:02;15.50;;;4.15;;
84275;SDS011;74432;51.212;3.254;2024-02-04T08:43:28;14.20;;;3.88;;
84275;SDS011;74432;51.212;3.254;2024-02-04T08:45:54;13.55;;;4.30;;
84275;SDS011;74432;51.212;3.254;2024-02-04T08:48:19;6.72;;;3.28;;
84275;SDS011;74432;51.212;3.254;2024-02-04T08:50:45;14.10;;;3.05;;
84275;SDS011;74432;51.212;3.254;2024-02-04T08:53:11;10.15;;;3.20;;
84275;SDS011;74432;51.212;3.254;2024-02-04T08:55:36;10.73;;;3.72;;
84275;SDS011;74432;51.212;3.254;2024-02-04T08:58:02;11.88;;;3.72;;
84275;SDS011;74432;51.212;3.254;2024-02-04T09:00:28;14.50;;;3.42;;
84275;SDS011;74432;51.212;3.254;2024-02-04T09:02:53;12.88;;;3.55;;
84275;SDS011;74432;51.212;3.254;2024-02-04T09:05:19;8.43;;;3.28;;
84275;SDS011;74432;51.212;3.254;2024-02-04T09:07:45;10.45;;;3.28;;
84275;SDS011;74432;51.212;3.254;2024-02-04T09:10:11;8.10;;;3.33;;
84275;SDS011;74432;51.212;3.254;2024-02-04T09:12:37;9.75;;;4.35;;
84275;SDS011;74432;51.212;3.254;2024-02-04T09:15:03;9.50;;;3.50;;
84275;SDS011;74432;51.212;3.254;2024-02-04T09:17:30;8.35;;;2.80;;
84275;SDS011;74432;51.212;3.254;2024-02-04T09:19:58;9.68;;;2.75;;
84275;SDS011;74432;51.212;3.254;2024-02-04T09:22:24;5.18;;;2.03;;
84275;SDS011;74432;51.212;3.254;2024-02-04T09:24:49;9.88;;;3.28;;
84275;SDS011;74432;51.212;3.254;2024-02-04T09:27:15;9.60;;;2.50;;
84275;SDS011;74432;51.212;3.254;2024-02-04T09:29:41;6.85;;;2.38;;
84275;SDS011;74432;51.212;3.254;2024-02-04T09:32:06;10.82;;;2.67;;
84275;SDS011;74432;51.212;3.254;2024-02-04T09:34:32;8.73;;;2.60;;
84275;SDS011;74432;51.212;3.254;2024-02-04T09:36:58;7.13;;;2.42;;
84275;SDS011;74432;51.212;3.254;2024-02-04T09:39:24;6.90;;;2.75;;
84275;SDS011;74432;51.212;3.254;2024-02-04T09:41:50;7.50;;;2.30;;
84275;SDS011;74432;51.212;3.254;2024-02-04T09:44:16;5.90;;;2.60;;
84275;SDS011;74432;51.212;3.254;2024-02-04T09:46:42;6.00;;;1.95;;
84275;SDS011;74432;51.212;3.254;2024-02-04T09:49:11;6.32;;;2.50;;
84275;SDS011;74432;51.212;3.254;2024-02-04T09:51:39;7.07;;;2.45;;
84275;SDS011;74432;51.212;3.254;2024-02-04T09:54:05;3.83;;;2.22;;
84275;SDS011;74432;51.212;3.254;2024-02-04T09:56:34;7.43;;;2.45;;
84275;SDS011;74432;51.212;3.254;2024-02-04T09:59:02;8.57;;;2.53;;
84275;SDS011;74432;51.212;3.254;2024-02-04T10:01:28;9.23;;;2.53;;
84275;SDS011;74432;51.212;3.254;2024-02-04T10:03:54;6.88;;;2.53;;
84275;SDS011;74432;51.212;3.254;2024-02-04T10:06:20;9.52;;;2.10;;
84275;SDS011;74432;51.212;3.254;2024-02-04T10:08:46;6.35;;;2.25;;
84275;SDS011;74432;51.212;3.254;2024-02-04T10:11:12;7.35;;;2.40;;
84275;SDS011;74432;51.212;3.254;2024-02-04T10:16:11;7.70;;;2.50;;
84275;SDS011;74432;51.212;3.254;2024-02-04T10:18:37;7.20;;;2.47;;
84275;SDS011;74432;51.212;3.254;2024-02-04T10:21:14;7.40;;;2.92;;
84275;SDS011;74432;51.212;3.254;2024-02-04T10:23:43;8.52;;;2.33;;
84275;SDS011;74432;51.212;3.254;2024-02-04T10:26:09;9.20;;;2.10;;
84275;SDS011;74432;51.212;3.254;2024-02-04T10:28:36;9.45;;;2.42;;
84275;SDS011;74432;51.212;3.254;2024-02-04T10:31:07;9.10;;;2.20;;
84275;SDS011;74432;51.212;3.254;2024-02-04T10:33:34;11.07;;;2.55;;
84275;SDS011;74432;51.212;3.254;2024-02-04T10:36:00;7.90;;;2.15;;
84275;SDS011;74432;51.212;3.254;2024-02-04T10:38:26;8.38;;;2.15;;
84275;SDS011;74432;51.212;3.254;2024-02-04T10:40:52;15.02;;;2.65;;
84275;SDS011;74432;51.212;3.254;2024-02-04T10:43:19;10.20;;;2.80;;
84275;SDS011;74432;51.212;3.254;2024-02-04T10:45:50;7.80;;;2.13;;
84275;SDS011;74432;51.212;3.254;2024-02-04T10:48:20;10.68;;;3.00;;
84275;SDS011;74432;51.212;3.254;2024-02-04T10:50:49;10.90;;;3.13;;
84275;SDS011;74432;51.212;3.254;2024-02-04T10:53:19;9.80;;;2.75;;
84275;SDS011;74432;51.212;3.254;2024-02-04T10:55:47;10.80;;;3.40;;
84275;SDS011;74432;51.212;3.254;2024-02-04T10:58:14;9.38;;;3.22;;
84275;SDS011;74432;51.212;3.254;2024-02-04T11:00:43;12.45;;;3.35;;
84275;SDS011;74432;51.212;3.254;2024-02-04T11:03:11;14.25;;;3.20;;
84275;SDS011;74432;51.212;3.254;2024-02-04T11:05:37;13.90;;;4.03;;
84275;SDS011;74432;51.212;3.254;2024-02-04T11:08:06;23.83;;;3.08;;
84275;SDS011;74432;51.212;3.254;2024-02-04T11:10:34;10.77;;;3.60;;
84275;SDS011;74432;51.212;3.254;2024-02-04T11:13:00;10.52;;;3.33;;
84275;SDS011;74432;51.212;3.254;2024-02-04T11:15:30;9.23;;;2.90;;
84275;SDS011;74432;51.212;3.254;2024-02-04T11:18:15;14.95;;;3.63;;
84275;SDS011;74432;51.212;3.254;2024-02-04T11:24:05;8.25;;;3.38;;
84275;SDS011;74432;51.212;3.254;2024-02-04T11:26:40;9.88;;;3.45;;
84275;SDS011;74432;51.212;3.254;2024-02-04T11:29:08;21.13;;;4.07;;
84275;SDS011;74432;51.212;3.254;2024-02-04T11:31:35;7.45;;;3.28;;
84275;SDS011;74432;51.212;3.254;2024-02-04T11:34:04;14.18;;;3.85;;
84275;SDS011;74432;51.212;3.254;2024-02-04T11:36:37;8.88;;;2.97;;
84275;SDS011;74432;51.212;3.254;2024-02-04T11:39:13;10.25;;;3.75;;
84275;SDS011;74432;51.212;3.254;2024-02-04T11:41:48;13.82;;;4.15;;
84275;SDS011;74432;51.212;3.254;2024-02-04T11:44:24;10.50;;;3.80;;
84275;SDS011;74432;51.212;3.254;2024-02-04T11:46:51;22.08;;;5.03;;
84275;SDS011;74432;51.212;3.254;2024-02-04T11:49:17;16.25;;;4.53;;
84275;SDS011;74432;51.212;3.254;2024-02-04T11:51:47;10.02;;;4.00;;
84275;SDS011;74432;51.212;3.254;2024-02-04T11:54:15;12.95;;;4.20;;
84275;SDS011;74432;51.212;3.254;2024-02-04T11:56:42;10.35;;;3.38;;
84275;SDS011;74432;51.212;3.254;2024-02-04T11:59:08;16.52;;;3.92;;
84275;SDS011;74432;51.212;3.254;2024-02-04T12:01:35;12.43;;;4.03;;
84275;SDS011;74432;51.212;3.254;2024-02-04T12:04:12;12.05;;;4.20;;
84275;SDS011;74432;51.212;3.254;2024-02-04T12:06:41;10.82;;;3.88;;
84275;SDS011;74432;51.212;3.254;2024-02-04T12:09:10;13.13;;;3.65;;
84275;SDS011;74432;51.212;3.254;2024-02-04T12:11:36;13.10;;;3.65;;
84275;SDS011;74432;51.212;3.254;2024-02-04T12:14:06;16.45;;;4.22;;
84275;SDS011;74432;51.212;3.254;2024-02-04T12:16:32;13.55;;;4.18;;
84275;SDS011;74432;51.212;3.254;2024-02-04T12:19:00;16.50;;;4.32;;
84275;SDS011;74432;51.212;3.254;2024-02-04T12:21:29;10.85;;;3.50;;
84275;SDS011;74432;51.212;3.254;2024-02-04T12:23:55;10.25;;;3.75;;
84275;SDS011;74432;51.212;3.254;2024-02-04T12:26:22;15.68;;;4.20;;
84275;SDS011;74432;51.212;3.254;2024-02-04T12:28:48;18.13;;;4.75;;
84275;SDS011;74432;51.212;3.254;2024-02-04T12:31:21;10.65;;;3.75;;
84275;SDS011;74432;51.212;3.254;2024-02-04T12:33:54;14.00;;;4.38;;
84275;SDS011;74432;51.212;3.254;2024-02-04T12:36:26;14.43;;;4.25;;
84275;SDS011;74432;51.212;3.254;2024-02-04T12:38:59;10.63;;;4.20;;
84275;SDS011;74432;51.212;3.254;2024-02-04T12:41:26;17.90;;;4.00;;
84275;SDS011;74432;51.212;3.254;2024-02-04T12:43:54;13.20;;;3.80;;
84275;SDS011;74432;51.212;3.254;2024-02-04T12:46:21;15.95;;;3.97;;
84275;SDS011;74432;51.212;3.254;2024-02-04T12:48:58;18.15;;;3.58;;
84275;SDS011;74432;51.212;3.254;2024-02-04T12:51:30;14.75;;;3.83;;
84275;SDS011;74432;51.212;3.254;2024-02-04T12:54:16;19.60;;;4.13;;
84275;SDS011;74432;51.212;3.254;2024-02-04T12:56:50;15.20;;;3.60;;
84275;SDS011;74432;51.212;3.254;2024-02-04T12:59:27;18.80;;;4.93;;
84275;SDS011;74432;51.212;3.254;2024-02-04T13:01:58;18.60;;;3.90;;
84275;SDS011;74432;51.212;3.254;2024-02-04T13:04:26;16.98;;;4.03;;
84275;SDS011;74432;51.212;3.254;2024-02-04T13:09:26;13.65;;;4.03;;
84275;SDS011;74432;51.212;3.254;2024-02-04T13:11:51;20.73;;;3.53;;
84275;SDS011;74432;51.212;3.254;2024-02-04T13:14:17;16.50;;;4.07;;
84275;SDS011;74432;51.212;3.254;2024-02-04T13:16:43;16.88;;;5.22;;
84275;SDS011;74432;51.212;3.254;2024-02-04T13:19:08;15.80;;;4.70;;
84275;SDS011;74432;51.212;3.254;2024-02-04T13:21:34;19.15;;;4.15;;
84275;SDS011;74432;51.212;3.254;2024-02-04T13:24:00;19.38;;;3.85;;
84275;SDS011;74432;51.212;3.254;2024-02-04T13:26:28;14.85;;;3.05;;
84275;SDS011;74432;51.212;3.254;2024-02-04T13:28:54;19.17;;;4.05;;
84275;SDS011;74432;51.212;3.254;2024-02-04T13:31:20;16.05;;;3.58;;
84275;SDS011;74432;51.212;3.254;2024-02-04T13:33:46;17.08;;;3.13;;
84275;SDS011;74432;51.212;3.254;2024-02-04T13:36:12;14.10;;;3.58;;
84275;SDS011;74432;51.212;3.254;2024-02-04T13:38:37;18.77;;;3.97;;
84275;SDS011;74432;51.212;3.254;2024-02-04T13:41:03;21.17;;;3.67;;
84275;SDS011;74432;51.212;3.254;2024-02-04T13:43:31;15.02;;;3.50;;
84275;SDS011;74432;51.212;3.254;2024-02-04T13:45:57;13.35;;;3.53;;
84275;SDS011;74432;51.212;3.254;2024-02-04T13:48:24;18.83;;;3.85;;
84275;SDS011;74432;51.212;3.254;2024-02-04T13:50:51;19.58;;;4.57;;
84275;SDS011;74432;51.212;3.254;2024-02-04T13:53:16;23.17;;;4.50;;
84275;SDS011;74432;51.212;3.254;2024-02-04T13:55:42;13.52;;;3.50;;
84275;SDS011;74432;51.212;3.254;2024-02-04T13:58:10;14.90;;;3.83;;
84275;SDS011;74432;51.212;3.254;2024-02-04T14:00:36;17.70;;;3.97;;
84275;SDS011;74432;51.212;3.254;2024-02-04T14:03:02;18.50;;;4.60;;
84275;SDS011;74432;51.212;3.254;2024-02-04T14:05:28;19.25;;;3.53;;
84275;SDS011;74432;51.212;3.254;2024-02-04T14:07:54;25.95;;;4.82;;
84275;SDS011;74432;51.212;3.254;2024-02-04T14:10:20;17.38;;;4.43;;
84275;SDS011;74432;51.212;3.254;2024-02-04T14:12:46;16.65;;;4.18;;
84275;SDS011;74432;51.212;3.254;2024-02-04T14:15:12;14.68;;;3.70;;
84275;SDS011;74432;51.212;3.254;2024-02-04T14:17:41;17.65;;;3.22;;
84275;SDS011;74432;51.212;3.254;2024-02-04T14:20:07;16.40;;;3.53;;
84275;SDS011;74432;51.212;3.254;2024-02-04T14:22:34;16.95;;;3.95;;
84275;SDS011;74432;51.212;3.254;2024-02-04T14:25:06;17.98;;;3.90;;
84275;SDS011;74432;51.212;3.254;2024-02-04T14:27:32;17.48;;;3.70;;
84275;SDS011;74432;51.212;3.254;2024-02-04T14:29:57;11.15;;;3.40;;
84275;SDS011;74432;51.212;3.254;2024-02-04T14:32:23;17.85;;;4.25;;
84275;SDS011;74432;51.212;3.254;2024-02-04T14:34:49;15.07;;;4.03;;
84275;SDS011;74432;51.212;3.254;2024-02-04T14:37:15;12.52;;;3.40;;
84275;SDS011;74432;51.212;3.254;2024-02-04T14:39:41;15.88;;;3.42;;
84275;SDS011;74432;51.212;3.254;2024-02-04T14:42:10;15.65;;;4.47;;
84275;SDS011;74432;51.212;3.254;2024-02-04T14:44:38;15.60;;;3.70;;
84275;SDS011;74432;51.212;3.254;2024-02-04T14:47:04;8.90;;;2.88;;
84275;SDS011;74432;51.212;3.254;2024-02-04T14:49:30;12.95;;;3.63;;